sensor_id;sensor_type;location;lat;lon;timestamp;temperature;humidity
25945;SHT31;13742;49.306;8.636;2022-12-10T00:00:50;2.32;85.91
25945;SHT31;13742;49.306;8.636;2022-12-10T00:01:51;2.22;85.91
25945;SHT31;13742;49.306;8.636;2022-12-10T00:02:50;2.23;85.88
25945;SHT31;13742;49.306;8.636;2022-12-10T00:03:50;2.24;86.09
25945;SHT31;13742;49.306;8.636;2022-12-10T00:04:50;2.29;86.01
25945;SHT31;13742;49.306;8.636;2022-12-10T00:05:50;2.29;86.00
25945;SHT31;13742;49.306;8.636;2022-12-10T00:06:50;2.32;86.06
25945;SHT31;13742;49.306;8.636;2022-12-10T00:07:50;2.23;85.93
25945;SHT31;13742;49.306;8.636;2022-12-10T00:08:50;2.14;86.28
25945;SHT31;13742;49.306;8.636;2022-12-10T00:09:50;2.22;86.13
25945;SHT31;13742;49.306;8.636;2022-12-10T00:10:50;2.26;86.11
25945;SHT31;13742;49.306;8.636;2022-12-10T00:11:50;2.20;86.00
25945;SHT31;13742;49.306;8.636;2022-12-10T00:12:50;2.12;86.21
25945;SHT31;13742;49.306;8.636;2022-12-10T00:13:51;2.10;86.31
25945;SHT31;13742;49.306;8.636;2022-12-10T00:14:50;2.01;86.67
25945;SHT31;13742;49.306;8.636;2022-12-10T00:15:50;2.01;86.76
25945;SHT31;13742;49.306;8.636;2022-12-10T00:16:50;2.09;86.60
25945;SHT31;13742;49.306;8.636;2022-12-10T00:17:50;2.01;86.83
25945;SHT31;13742;49.306;8.636;2022-12-10T00:18:50;1.96;86.94
25945;SHT31;13742;49.306;8.636;2022-12-10T00:19:50;1.96;87.07
25945;SHT31;13742;49.306;8.636;2022-12-10T00:20:50;1.96;86.83
25945;SHT31;13742;49.306;8.636;2022-12-10T00:21:50;1.98;87.11
25945;SHT31;13742;49.306;8.636;2022-12-10T00:22:50;1.93;86.96
25945;SHT31;13742;49.306;8.636;2022-12-10T00:23:50;1.91;87.00
25945;SHT31;13742;49.306;8.636;2022-12-10T00:24:50;1.95;87.11
25945;SHT31;13742;49.306;8.636;2022-12-10T00:25:50;1.85;87.04
25945;SHT31;13742;49.306;8.636;2022-12-10T00:26:50;1.83;87.26
25945;SHT31;13742;49.306;8.636;2022-12-10T00:27:50;1.79;87.32
25945;SHT31;13742;49.306;8.636;2022-12-10T00:28:51;1.78;87.31
25945;SHT31;13742;49.306;8.636;2022-12-10T00:29:50;1.82;87.39
25945;SHT31;13742;49.306;8.636;2022-12-10T00:30:50;1.88;87.19
25945;SHT31;13742;49.306;8.636;2022-12-10T00:31:50;1.89;87.20
25945;SHT31;13742;49.306;8.636;2022-12-10T00:32:50;1.88;87.03
25945;SHT31;13742;49.306;8.636;2022-12-10T00:33:50;1.86;86.95
25945;SHT31;13742;49.306;8.636;2022-12-10T00:34:50;1.88;86.93
25945;SHT31;13742;49.306;8.636;2022-12-10T00:35:50;1.89;86.77
25945;SHT31;13742;49.306;8.636;2022-12-10T00:36:50;1.86;86.95
25945;SHT31;13742;49.306;8.636;2022-12-10T00:37:50;1.86;87.19
25945;SHT31;13742;49.306;8.636;2022-12-10T00:38:50;1.91;87.21
25945;SHT31;13742;49.306;8.636;2022-12-10T00:39:50;1.95;87.08
25945;SHT31;13742;49.306;8.636;2022-12-10T00:40:50;1.93;86.94
25945;SHT31;13742;49.306;8.636;2022-12-10T00:41:50;1.92;86.87
25945;SHT31;13742;49.306;8.636;2022-12-10T00:42:50;1.93;86.86
25945;SHT31;13742;49.306;8.636;2022-12-10T00:43:50;1.92;86.73
25945;SHT31;13742;49.306;8.636;2022-12-10T00:44:50;1.95;86.76
25945;SHT31;13742;49.306;8.636;2022-12-10T00:45:50;1.98;87.00
25945;SHT31;13742;49.306;8.636;2022-12-10T00:46:50;1.98;86.76
25945;SHT31;13742;49.306;8.636;2022-12-10T00:47:50;1.99;86.70
25945;SHT31;13742;49.306;8.636;2022-12-10T00:48:50;2.01;86.61
25945;SHT31;13742;49.306;8.636;2022-12-10T00:49:50;1.91;86.80
25945;SHT31;13742;49.306;8.636;2022-12-10T00:51:50;1.91;86.69
25945;SHT31;13742;49.306;8.636;2022-12-10T00:52:50;1.89;86.92
25945;SHT31;13742;49.306;8.636;2022-12-10T00:53:51;1.92;86.93
25945;SHT31;13742;49.306;8.636;2022-12-10T00:54:50;1.92;86.99
25945;SHT31;13742;49.306;8.636;2022-12-10T00:55:50;1.95;86.87
25945;SHT31;13742;49.306;8.636;2022-12-10T00:56:50;1.95;86.86
25945;SHT31;13742;49.306;8.636;2022-12-10T00:57:50;1.96;86.79
25945;SHT31;13742;49.306;8.636;2022-12-10T00:58:51;1.95;86.74
25945;SHT31;13742;49.306;8.636;2022-12-10T00:59:50;1.92;86.84
25945;SHT31;13742;49.306;8.636;2022-12-10T01:00:50;1.88;86.97
25945;SHT31;13742;49.306;8.636;2022-12-10T01:01:50;1.93;87.05
25945;SHT31;13742;49.306;8.636;2022-12-10T01:02:50;1.96;86.99
25945;SHT31;13742;49.306;8.636;2022-12-10T01:03:52;1.98;86.88
25945;SHT31;13742;49.306;8.636;2022-12-10T01:04:53;2.01;87.11
25945;SHT31;13742;49.306;8.636;2022-12-10T01:05:50;1.96;86.78
25945;SHT31;13742;49.306;8.636;2022-12-10T01:06:52;1.99;86.66
25945;SHT31;13742;49.306;8.636;2022-12-10T01:07:50;1.99;86.82
25945;SHT31;13742;49.306;8.636;2022-12-10T01:08:52;2.01;86.74
25945;SHT31;13742;49.306;8.636;2022-12-10T01:09:50;2.02;86.81
25945;SHT31;13742;49.306;8.636;2022-12-10T01:10:53;1.96;86.94
25945;SHT31;13742;49.306;8.636;2022-12-10T01:11:51;1.92;87.09
25945;SHT31;13742;49.306;8.636;2022-12-10T01:12:50;1.92;87.13
25945;SHT31;13742;49.306;8.636;2022-12-10T01:13:51;1.93;87.38
25945;SHT31;13742;49.306;8.636;2022-12-10T01:14:50;1.96;87.38
25945;SHT31;13742;49.306;8.636;2022-12-10T01:15:50;1.92;87.08
25945;SHT31;13742;49.306;8.636;2022-12-10T01:16:53;1.95;87.40
25945;SHT31;13742;49.306;8.636;2022-12-10T01:17:50;1.98;87.29
25945;SHT31;13742;49.306;8.636;2022-12-10T01:18:53;2.01;87.23
25945;SHT31;13742;49.306;8.636;2022-12-10T01:19:50;2.05;87.16
25945;SHT31;13742;49.306;8.636;2022-12-10T01:20:50;2.06;86.96
25945;SHT31;13742;49.306;8.636;2022-12-10T01:21:51;2.09;86.82
25945;SHT31;13742;49.306;8.636;2022-12-10T01:22:50;2.12;86.81
25945;SHT31;13742;49.306;8.636;2022-12-10T01:23:51;2.13;86.68
25945;SHT31;13742;49.306;8.636;2022-12-10T01:24:50;2.13;86.82
25945;SHT31;13742;49.306;8.636;2022-12-10T01:25:50;2.12;86.65
25945;SHT31;13742;49.306;8.636;2022-12-10T01:26:50;2.14;86.70
25945;SHT31;13742;49.306;8.636;2022-12-10T01:27:50;2.14;86.69
25945;SHT31;13742;49.306;8.636;2022-12-10T01:28:51;2.13;86.45
25945;SHT31;13742;49.306;8.636;2022-12-10T01:29:50;2.12;86.66
25945;SHT31;13742;49.306;8.636;2022-12-10T01:30:50;2.08;86.63
25945;SHT31;13742;49.306;8.636;2022-12-10T01:31:51;2.09;86.94
25945;SHT31;13742;49.306;8.636;2022-12-10T01:32:50;2.10;86.79
25945;SHT31;13742;49.306;8.636;2022-12-10T01:33:50;2.14;86.87
25945;SHT31;13742;49.306;8.636;2022-12-10T01:34:50;2.14;86.63
25945;SHT31;13742;49.306;8.636;2022-12-10T01:35:50;2.16;86.72
25945;SHT31;13742;49.306;8.636;2022-12-10T01:36:53;2.17;86.60
25945;SHT31;13742;49.306;8.636;2022-12-10T01:37:50;2.19;86.65
25945;SHT31;13742;49.306;8.636;2022-12-10T01:38:50;2.20;86.51
25945;SHT31;13742;49.306;8.636;2022-12-10T01:39:50;2.22;86.60
25945;SHT31;13742;49.306;8.636;2022-12-10T01:40:50;2.22;86.45
25945;SHT31;13742;49.306;8.636;2022-12-10T01:41:55;2.23;86.54
25945;SHT31;13742;49.306;8.636;2022-12-10T01:42:50;2.24;86.64
25945;SHT31;13742;49.306;8.636;2022-12-10T01:44:57;2.23;86.62
25945;SHT31;13742;49.306;8.636;2022-12-10T01:45:50;2.24;86.54
25945;SHT31;13742;49.306;8.636;2022-12-10T01:46:53;2.28;86.51
25945;SHT31;13742;49.306;8.636;2022-12-10T01:47:50;2.28;86.42
25945;SHT31;13742;49.306;8.636;2022-12-10T01:48:50;2.28;86.46
25945;SHT31;13742;49.306;8.636;2022-12-10T01:49:50;2.22;86.72
25945;SHT31;13742;49.306;8.636;2022-12-10T01:50:50;2.26;86.63
25945;SHT31;13742;49.306;8.636;2022-12-10T01:51:53;2.23;86.54
25945;SHT31;13742;49.306;8.636;2022-12-10T01:52:50;2.26;86.59
25945;SHT31;13742;49.306;8.636;2022-12-10T01:53:50;2.24;86.50
25945;SHT31;13742;49.306;8.636;2022-12-10T01:54:50;2.28;86.50
25945;SHT31;13742;49.306;8.636;2022-12-10T01:55:50;2.28;86.35
25945;SHT31;13742;49.306;8.636;2022-12-10T01:56:56;2.29;86.32
25945;SHT31;13742;49.306;8.636;2022-12-10T01:57:50;2.29;86.37
25945;SHT31;13742;49.306;8.636;2022-12-10T01:58:52;2.30;86.29
25945;SHT31;13742;49.306;8.636;2022-12-10T01:59:53;2.34;86.32
25945;SHT31;13742;49.306;8.636;2022-12-10T02:01:02;2.34;86.15
25945;SHT31;13742;49.306;8.636;2022-12-10T02:01:59;2.33;86.06
25945;SHT31;13742;49.306;8.636;2022-12-10T02:02:56;2.34;86.20
25945;SHT31;13742;49.306;8.636;2022-12-10T02:05:01;2.36;86.07
25945;SHT31;13742;49.306;8.636;2022-12-10T02:06:11;2.34;86.01
25945;SHT31;13742;49.306;8.636;2022-12-10T02:06:59;2.36;85.95
25945;SHT31;13742;49.306;8.636;2022-12-10T02:09:58;2.39;85.97
25945;SHT31;13742;49.306;8.636;2022-12-10T02:12:02;2.36;85.74
25945;SHT31;13742;49.306;8.636;2022-12-10T02:13:01;2.36;85.77
25945;SHT31;13742;49.306;8.636;2022-12-10T02:13:57;2.34;85.71
25945;SHT31;13742;49.306;8.636;2022-12-10T02:15:00;2.36;85.77
25945;SHT31;13742;49.306;8.636;2022-12-10T02:16:00;2.39;85.84
25945;SHT31;13742;49.306;8.636;2022-12-10T02:17:54;2.39;85.83
25945;SHT31;13742;49.306;8.636;2022-12-10T02:18:58;2.40;85.86
25945;SHT31;13742;49.306;8.636;2022-12-10T02:20:55;2.37;85.80
25945;SHT31;13742;49.306;8.636;2022-12-10T02:21:51;2.41;85.90
25945;SHT31;13742;49.306;8.636;2022-12-10T02:22:54;2.40;85.90
25945;SHT31;13742;49.306;8.636;2022-12-10T02:23:54;2.41;86.01
25945;SHT31;13742;49.306;8.636;2022-12-10T02:24:51;2.43;85.94
25945;SHT31;13742;49.306;8.636;2022-12-10T02:25:59;2.32;86.06
25945;SHT31;13742;49.306;8.636;2022-12-10T02:28:01;2.13;87.10
25945;SHT31;13742;49.306;8.636;2022-12-10T02:29:51;2.20;86.95
25945;SHT31;13742;49.306;8.636;2022-12-10T02:30:51;2.20;86.93
25945;SHT31;13742;49.306;8.636;2022-12-10T02:31:53;2.14;86.87
25945;SHT31;13742;49.306;8.636;2022-12-10T02:32:50;2.14;86.88
25945;SHT31;13742;49.306;8.636;2022-12-10T02:33:54;2.19;87.04
25945;SHT31;13742;49.306;8.636;2022-12-10T02:34:54;2.19;86.88
25945;SHT31;13742;49.306;8.636;2022-12-10T02:35:50;2.22;86.81
25945;SHT31;13742;49.306;8.636;2022-12-10T02:37:05;2.23;86.77
25945;SHT31;13742;49.306;8.636;2022-12-10T02:37:56;2.24;86.66
25945;SHT31;13742;49.306;8.636;2022-12-10T02:38:51;2.23;86.55
25945;SHT31;13742;49.306;8.636;2022-12-10T02:39:53;2.29;86.72
25945;SHT31;13742;49.306;8.636;2022-12-10T02:40:53;2.26;86.48
25945;SHT31;13742;49.306;8.636;2022-12-10T02:41:52;2.24;86.40
25945;SHT31;13742;49.306;8.636;2022-12-10T02:42:51;2.17;86.48
25945;SHT31;13742;49.306;8.636;2022-12-10T02:43:52;2.17;86.65
25945;SHT31;13742;49.306;8.636;2022-12-10T02:44:52;2.20;86.72
25945;SHT31;13742;49.306;8.636;2022-12-10T02:45:50;2.19;86.46
25945;SHT31;13742;49.306;8.636;2022-12-10T02:46:52;2.20;86.45
25945;SHT31;13742;49.306;8.636;2022-12-10T02:47:51;2.16;86.54
25945;SHT31;13742;49.306;8.636;2022-12-10T02:48:50;2.19;86.49
25945;SHT31;13742;49.306;8.636;2022-12-10T02:49:53;2.19;86.49
25945;SHT31;13742;49.306;8.636;2022-12-10T02:50:50;2.19;86.16
25945;SHT31;13742;49.306;8.636;2022-12-10T02:51:50;2.17;86.40
25945;SHT31;13742;49.306;8.636;2022-12-10T02:52:50;2.19;86.31
25945;SHT31;13742;49.306;8.636;2022-12-10T02:54:50;2.08;86.53
25945;SHT31;13742;49.306;8.636;2022-12-10T02:56:00;2.09;86.77
25945;SHT31;13742;49.306;8.636;2022-12-10T02:56:54;2.02;86.91
25945;SHT31;13742;49.306;8.636;2022-12-10T02:58:03;2.02;87.07
25945;SHT31;13742;49.306;8.636;2022-12-10T03:00:14;1.99;87.03
25945;SHT31;13742;49.306;8.636;2022-12-10T03:01:02;2.03;87.07
25945;SHT31;13742;49.306;8.636;2022-12-10T03:03:16;2.01;87.10
25945;SHT31;13742;49.306;8.636;2022-12-10T03:03:56;1.95;87.24
25945;SHT31;13742;49.306;8.636;2022-12-10T03:04:57;1.85;87.15
25945;SHT31;13742;49.306;8.636;2022-12-10T03:06:59;1.89;87.39
25945;SHT31;13742;49.306;8.636;2022-12-10T03:07:58;1.88;87.46
25945;SHT31;13742;49.306;8.636;2022-12-10T03:09:58;1.96;87.47
25945;SHT31;13742;49.306;8.636;2022-12-10T03:11:07;1.99;87.32
25945;SHT31;13742;49.306;8.636;2022-12-10T03:11:58;2.01;87.30
25945;SHT31;13742;49.306;8.636;2022-12-10T03:12:56;1.95;86.97
25945;SHT31;13742;49.306;8.636;2022-12-10T03:14:50;2.01;87.05
25945;SHT31;13742;49.306;8.636;2022-12-10T03:15:52;2.01;87.06
25945;SHT31;13742;49.306;8.636;2022-12-10T03:16:53;1.98;87.02
25945;SHT31;13742;49.306;8.636;2022-12-10T03:17:50;1.91;86.97
25945;SHT31;13742;49.306;8.636;2022-12-10T03:18:56;1.98;86.97
25945;SHT31;13742;49.306;8.636;2022-12-10T03:19:50;1.99;86.96
25945;SHT31;13742;49.306;8.636;2022-12-10T03:20:52;1.99;86.94
25945;SHT31;13742;49.306;8.636;2022-12-10T03:21:51;1.95;86.95
25945;SHT31;13742;49.306;8.636;2022-12-10T03:22:50;1.91;87.24
25945;SHT31;13742;49.306;8.636;2022-12-10T03:23:50;1.83;87.39
25945;SHT31;13742;49.306;8.636;2022-12-10T03:24:50;1.92;87.44
25945;SHT31;13742;49.306;8.636;2022-12-10T03:25:50;1.85;87.57
25945;SHT31;13742;49.306;8.636;2022-12-10T03:26:50;1.88;87.57
25945;SHT31;13742;49.306;8.636;2022-12-10T03:27:52;1.92;87.74
25945;SHT31;13742;49.306;8.636;2022-12-10T03:28:54;1.82;87.65
25945;SHT31;13742;49.306;8.636;2022-12-10T03:29:52;1.83;87.72
25945;SHT31;13742;49.306;8.636;2022-12-10T03:30:50;1.88;87.41
25945;SHT31;13742;49.306;8.636;2022-12-10T03:31:52;1.88;87.42
25945;SHT31;13742;49.306;8.636;2022-12-10T03:32:51;1.85;87.14
25945;SHT31;13742;49.306;8.636;2022-12-10T03:33:50;1.82;87.22
25945;SHT31;13742;49.306;8.636;2022-12-10T03:34:51;1.85;87.39
25945;SHT31;13742;49.306;8.636;2022-12-10T03:35:50;1.79;87.22
25945;SHT31;13742;49.306;8.636;2022-12-10T03:36:51;1.72;87.21
25945;SHT31;13742;49.306;8.636;2022-12-10T03:37:50;1.77;87.24
25945;SHT31;13742;49.306;8.636;2022-12-10T03:38:50;1.81;87.60
25945;SHT31;13742;49.306;8.636;2022-12-10T03:39:50;1.79;87.43
25945;SHT31;13742;49.306;8.636;2022-12-10T03:40:50;1.78;87.22
25945;SHT31;13742;49.306;8.636;2022-12-10T03:41:50;1.70;87.28
25945;SHT31;13742;49.306;8.636;2022-12-10T03:42:50;1.78;87.46
25945;SHT31;13742;49.306;8.636;2022-12-10T03:43:55;1.68;87.55
25945;SHT31;13742;49.306;8.636;2022-12-10T03:44:51;1.75;87.76
25945;SHT31;13742;49.306;8.636;2022-12-10T03:45:50;1.68;87.50
25945;SHT31;13742;49.306;8.636;2022-12-10T03:46:50;1.68;87.62
25945;SHT31;13742;49.306;8.636;2022-12-10T03:47:50;1.72;87.52
25945;SHT31;13742;49.306;8.636;2022-12-10T03:48:50;1.74;87.45
25945;SHT31;13742;49.306;8.636;2022-12-10T03:49:50;1.75;87.19
25945;SHT31;13742;49.306;8.636;2022-12-10T03:50:50;1.75;87.46
25945;SHT31;13742;49.306;8.636;2022-12-10T03:51:50;1.78;87.35
25945;SHT31;13742;49.306;8.636;2022-12-10T03:52:50;1.72;87.22
25945;SHT31;13742;49.306;8.636;2022-12-10T03:53:50;1.67;87.35
25945;SHT31;13742;49.306;8.636;2022-12-10T03:54:50;1.70;87.38
25945;SHT31;13742;49.306;8.636;2022-12-10T03:55:50;1.65;87.52
25945;SHT31;13742;49.306;8.636;2022-12-10T03:56:50;1.58;87.47
25945;SHT31;13742;49.306;8.636;2022-12-10T03:57:50;1.65;87.40
25945;SHT31;13742;49.306;8.636;2022-12-10T03:58:50;1.58;87.71
25945;SHT31;13742;49.306;8.636;2022-12-10T03:59:50;1.44;87.87
25945;SHT31;13742;49.306;8.636;2022-12-10T04:00:50;1.50;88.13
25945;SHT31;13742;49.306;8.636;2022-12-10T04:01:50;1.55;88.02
25945;SHT31;13742;49.306;8.636;2022-12-10T04:02:50;1.53;87.92
25945;SHT31;13742;49.306;8.636;2022-12-10T04:03:50;1.47;87.87
25945;SHT31;13742;49.306;8.636;2022-12-10T04:04:50;1.44;88.09
25945;SHT31;13742;49.306;8.636;2022-12-10T04:05:50;1.44;88.16
25945;SHT31;13742;49.306;8.636;2022-12-10T04:06:50;1.44;88.25
25945;SHT31;13742;49.306;8.636;2022-12-10T04:07:50;1.43;88.06
25945;SHT31;13742;49.306;8.636;2022-12-10T04:08:52;1.40;88.09
25945;SHT31;13742;49.306;8.636;2022-12-10T04:09:50;1.39;88.18
25945;SHT31;13742;49.306;8.636;2022-12-10T04:10:50;1.36;88.28
25945;SHT31;13742;49.306;8.636;2022-12-10T04:11:50;1.33;88.23
25945;SHT31;13742;49.306;8.636;2022-12-10T04:13:05;1.34;88.39
25945;SHT31;13742;49.306;8.636;2022-12-10T04:13:55;1.40;88.57
25945;SHT31;13742;49.306;8.636;2022-12-10T04:14:55;1.33;88.36
25945;SHT31;13742;49.306;8.636;2022-12-10T04:15:56;1.46;88.73
25945;SHT31;13742;49.306;8.636;2022-12-10T04:16:50;1.44;88.17
25945;SHT31;13742;49.306;8.636;2022-12-10T04:17:50;1.49;88.30
25945;SHT31;13742;49.306;8.636;2022-12-10T04:18:50;1.50;87.96
25945;SHT31;13742;49.306;8.636;2022-12-10T04:19:50;1.50;88.09
25945;SHT31;13742;49.306;8.636;2022-12-10T04:20:55;1.50;88.13
25945;SHT31;13742;49.306;8.636;2022-12-10T04:21:55;1.50;87.92
25945;SHT31;13742;49.306;8.636;2022-12-10T04:22:55;1.47;87.64
25945;SHT31;13742;49.306;8.636;2022-12-10T04:23:55;1.49;87.85
25945;SHT31;13742;49.306;8.636;2022-12-10T04:24:55;1.49;87.80
25945;SHT31;13742;49.306;8.636;2022-12-10T04:25:55;1.50;87.91
25945;SHT31;13742;49.306;8.636;2022-12-10T04:26:53;1.39;87.93
25945;SHT31;13742;49.306;8.636;2022-12-10T04:27:50;1.44;88.19
25945;SHT31;13742;49.306;8.636;2022-12-10T04:28:50;1.50;88.18
25945;SHT31;13742;49.306;8.636;2022-12-10T04:29:50;1.46;88.00
25945;SHT31;13742;49.306;8.636;2022-12-10T04:30:50;1.44;88.19
25945;SHT31;13742;49.306;8.636;2022-12-10T04:31:50;1.44;88.15
25945;SHT31;13742;49.306;8.636;2022-12-10T04:32:50;1.49;88.08
25945;SHT31;13742;49.306;8.636;2022-12-10T04:33:50;1.46;87.95
25945;SHT31;13742;49.306;8.636;2022-12-10T04:34:50;1.40;87.93
25945;SHT31;13742;49.306;8.636;2022-12-10T04:35:50;1.43;88.17
25945;SHT31;13742;49.306;8.636;2022-12-10T04:36:50;1.43;88.26
25945;SHT31;13742;49.306;8.636;2022-12-10T04:37:49;1.41;88.22
25945;SHT31;13742;49.306;8.636;2022-12-10T04:38:50;1.44;88.29
25945;SHT31;13742;49.306;8.636;2022-12-10T04:39:50;1.47;88.15
25945;SHT31;13742;49.306;8.636;2022-12-10T04:40:50;1.47;87.86
25945;SHT31;13742;49.306;8.636;2022-12-10T04:41:51;1.47;88.11
25945;SHT31;13742;49.306;8.636;2022-12-10T04:42:50;1.39;87.96
25945;SHT31;13742;49.306;8.636;2022-12-10T04:43:50;1.47;88.08
25945;SHT31;13742;49.306;8.636;2022-12-10T04:44:50;1.47;87.84
25945;SHT31;13742;49.306;8.636;2022-12-10T04:45:50;1.50;88.02
25945;SHT31;13742;49.306;8.636;2022-12-10T04:46:50;1.54;87.93
25945;SHT31;13742;49.306;8.636;2022-12-10T04:47:50;1.50;87.88
25945;SHT31;13742;49.306;8.636;2022-12-10T04:48:49;1.47;87.73
25945;SHT31;13742;49.306;8.636;2022-12-10T04:49:49;1.43;87.82
25945;SHT31;13742;49.306;8.636;2022-12-10T04:50:50;1.44;88.02
25945;SHT31;13742;49.306;8.636;2022-12-10T04:51:50;1.40;87.92
25945;SHT31;13742;49.306;8.636;2022-12-10T04:52:50;1.46;88.27
25945;SHT31;13742;49.306;8.636;2022-12-10T04:53:50;1.50;87.96
25945;SHT31;13742;49.306;8.636;2022-12-10T04:54:50;1.46;87.84
25945;SHT31;13742;49.306;8.636;2022-12-10T04:55:49;1.46;87.90
25945;SHT31;13742;49.306;8.636;2022-12-10T04:56:50;1.49;88.12
25945;SHT31;13742;49.306;8.636;2022-12-10T04:57:50;1.55;88.09
25945;SHT31;13742;49.306;8.636;2022-12-10T04:58:50;1.55;88.00
25945;SHT31;13742;49.306;8.636;2022-12-10T04:59:50;1.55;87.89
25945;SHT31;13742;49.306;8.636;2022-12-10T05:00:49;1.57;87.66
25945;SHT31;13742;49.306;8.636;2022-12-10T05:01:50;1.54;88.07
25945;SHT31;13742;49.306;8.636;2022-12-10T05:02:50;1.50;87.65
25945;SHT31;13742;49.306;8.636;2022-12-10T05:03:50;1.55;87.83
25945;SHT31;13742;49.306;8.636;2022-12-10T05:04:49;1.53;87.59
25945;SHT31;13742;49.306;8.636;2022-12-10T05:05:49;1.54;87.52
25945;SHT31;13742;49.306;8.636;2022-12-10T05:06:50;1.58;87.68
25945;SHT31;13742;49.306;8.636;2022-12-10T05:07:49;1.55;87.36
25945;SHT31;13742;49.306;8.636;2022-12-10T05:08:50;1.61;87.45
25945;SHT31;13742;49.306;8.636;2022-12-10T05:09:49;1.64;87.39
25945;SHT31;13742;49.306;8.636;2022-12-10T05:10:49;1.65;87.37
25945;SHT31;13742;49.306;8.636;2022-12-10T05:11:49;1.65;87.19
25945;SHT31;13742;49.306;8.636;2022-12-10T05:12:50;1.67;87.24
25945;SHT31;13742;49.306;8.636;2022-12-10T05:13:50;1.67;87.34
25945;SHT31;13742;49.306;8.636;2022-12-10T05:14:49;1.70;87.10
25945;SHT31;13742;49.306;8.636;2022-12-10T05:15:49;1.68;86.85
25945;SHT31;13742;49.306;8.636;2022-12-10T05:16:50;1.68;87.03
25945;SHT31;13742;49.306;8.636;2022-12-10T05:17:50;1.71;86.99
25945;SHT31;13742;49.306;8.636;2022-12-10T05:18:50;1.74;86.96
25945;SHT31;13742;49.306;8.636;2022-12-10T05:19:49;1.74;86.96
25945;SHT31;13742;49.306;8.636;2022-12-10T05:20:49;1.75;86.95
25945;SHT31;13742;49.306;8.636;2022-12-10T05:21:55;1.77;86.81
25945;SHT31;13742;49.306;8.636;2022-12-10T05:22:55;1.71;86.56
25945;SHT31;13742;49.306;8.636;2022-12-10T05:23:51;1.74;86.93
25945;SHT31;13742;49.306;8.636;2022-12-10T05:24:49;1.72;86.87
25945;SHT31;13742;49.306;8.636;2022-12-10T05:25:59;1.75;86.85
25945;SHT31;13742;49.306;8.636;2022-12-10T05:26:51;1.68;86.55
25945;SHT31;13742;49.306;8.636;2022-12-10T05:27:49;1.68;86.84
25945;SHT31;13742;49.306;8.636;2022-12-10T05:28:55;1.67;86.88
25945;SHT31;13742;49.306;8.636;2022-12-10T05:29:49;1.64;86.95
25945;SHT31;13742;49.306;8.636;2022-12-10T05:30:49;1.65;86.85
25945;SHT31;13742;49.306;8.636;2022-12-10T05:31:49;1.64;86.90
25945;SHT31;13742;49.306;8.636;2022-12-10T05:32:49;1.64;87.26
25945;SHT31;13742;49.306;8.636;2022-12-10T05:33:50;1.64;87.11
25945;SHT31;13742;49.306;8.636;2022-12-10T05:34:49;1.65;87.23
25945;SHT31;13742;49.306;8.636;2022-12-10T05:35:58;1.65;86.81
25945;SHT31;13742;49.306;8.636;2022-12-10T05:36:49;1.57;86.93
25945;SHT31;13742;49.306;8.636;2022-12-10T05:37:49;1.53;87.36
25945;SHT31;13742;49.306;8.636;2022-12-10T05:38:50;1.51;87.29
25945;SHT31;13742;49.306;8.636;2022-12-10T05:39:49;1.55;87.28
25945;SHT31;13742;49.306;8.636;2022-12-10T05:40:50;1.55;87.20
25945;SHT31;13742;49.306;8.636;2022-12-10T05:41:49;1.57;87.07
25945;SHT31;13742;49.306;8.636;2022-12-10T05:42:49;1.57;87.14
25945;SHT31;13742;49.306;8.636;2022-12-10T05:43:50;1.55;87.18
25945;SHT31;13742;49.306;8.636;2022-12-10T05:44:49;1.49;87.19
25945;SHT31;13742;49.306;8.636;2022-12-10T05:45:49;1.54;87.27
25945;SHT31;13742;49.306;8.636;2022-12-10T05:46:51;1.57;87.27
25945;SHT31;13742;49.306;8.636;2022-12-10T05:47:49;1.51;87.03
25945;SHT31;13742;49.306;8.636;2022-12-10T05:48:50;1.41;87.25
25945;SHT31;13742;49.306;8.636;2022-12-10T05:49:49;1.41;87.51
25945;SHT31;13742;49.306;8.636;2022-12-10T05:50:49;1.43;87.56
25945;SHT31;13742;49.306;8.636;2022-12-10T05:51:49;1.46;87.38
25945;SHT31;13742;49.306;8.636;2022-12-10T05:52:50;1.50;87.32
25945;SHT31;13742;49.306;8.636;2022-12-10T05:53:51;1.50;87.31
25945;SHT31;13742;49.306;8.636;2022-12-10T05:54:49;1.50;87.19
25945;SHT31;13742;49.306;8.636;2022-12-10T05:55:50;1.47;87.21
25945;SHT31;13742;49.306;8.636;2022-12-10T05:56:49;1.50;87.24
25945;SHT31;13742;49.306;8.636;2022-12-10T05:57:49;1.49;87.21
25945;SHT31;13742;49.306;8.636;2022-12-10T05:58:52;1.49;87.22
25945;SHT31;13742;49.306;8.636;2022-12-10T05:59:49;1.49;87.10
25945;SHT31;13742;49.306;8.636;2022-12-10T06:00:49;1.50;87.14
25945;SHT31;13742;49.306;8.636;2022-12-10T06:01:49;1.47;87.19
25945;SHT31;13742;49.306;8.636;2022-12-10T06:02:50;1.47;87.18
25945;SHT31;13742;49.306;8.636;2022-12-10T06:03:53;1.46;87.40
25945;SHT31;13742;49.306;8.636;2022-12-10T06:04:50;1.43;87.31
25945;SHT31;13742;49.306;8.636;2022-12-10T06:05:49;1.46;87.48
25945;SHT31;13742;49.306;8.636;2022-12-10T06:06:49;1.46;87.57
25945;SHT31;13742;49.306;8.636;2022-12-10T06:07:49;1.50;87.42
25945;SHT31;13742;49.306;8.636;2022-12-10T06:08:50;1.49;87.27
25945;SHT31;13742;49.306;8.636;2022-12-10T06:09:49;1.37;87.29
25945;SHT31;13742;49.306;8.636;2022-12-10T06:10:49;1.33;87.53
25945;SHT31;13742;49.306;8.636;2022-12-10T06:11:49;1.34;87.97
25945;SHT31;13742;49.306;8.636;2022-12-10T06:12:49;1.37;87.70
25945;SHT31;13742;49.306;8.636;2022-12-10T06:13:49;1.37;87.73
25945;SHT31;13742;49.306;8.636;2022-12-10T06:14:49;1.33;87.66
25945;SHT31;13742;49.306;8.636;2022-12-10T06:15:49;1.30;87.96
25945;SHT31;13742;49.306;8.636;2022-12-10T06:16:49;1.29;88.05
25945;SHT31;13742;49.306;8.636;2022-12-10T06:17:49;1.30;87.80
25945;SHT31;13742;49.306;8.636;2022-12-10T06:18:50;1.31;87.86
25945;SHT31;13742;49.306;8.636;2022-12-10T06:19:49;1.27;87.82
25945;SHT31;13742;49.306;8.636;2022-12-10T06:20:49;1.22;87.99
25945;SHT31;13742;49.306;8.636;2022-12-10T06:21:49;1.19;88.06
25945;SHT31;13742;49.306;8.636;2022-12-10T06:22:49;1.16;88.32
25945;SHT31;13742;49.306;8.636;2022-12-10T06:23:51;1.23;88.24
25945;SHT31;13742;49.306;8.636;2022-12-10T06:24:49;1.22;88.23
25945;SHT31;13742;49.306;8.636;2022-12-10T06:25:49;1.23;88.20
25945;SHT31;13742;49.306;8.636;2022-12-10T06:26:49;1.18;88.24
25945;SHT31;13742;49.306;8.636;2022-12-10T06:27:49;1.19;88.14
25945;SHT31;13742;49.306;8.636;2022-12-10T06:28:50;1.22;88.12
25945;SHT31;13742;49.306;8.636;2022-12-10T06:29:49;1.23;88.08
25945;SHT31;13742;49.306;8.636;2022-12-10T06:30:49;1.23;87.95
25945;SHT31;13742;49.306;8.636;2022-12-10T06:31:49;1.23;87.90
25945;SHT31;13742;49.306;8.636;2022-12-10T06:32:49;1.30;88.02
25945;SHT31;13742;49.306;8.636;2022-12-10T06:33:50;1.26;87.65
25945;SHT31;13742;49.306;8.636;2022-12-10T06:34:49;1.23;87.86
25945;SHT31;13742;49.306;8.636;2022-12-10T06:35:49;1.24;88.08
25945;SHT31;13742;49.306;8.636;2022-12-10T06:36:49;1.24;87.99
25945;SHT31;13742;49.306;8.636;2022-12-10T06:37:50;1.15;87.81
25945;SHT31;13742;49.306;8.636;2022-12-10T06:38:49;1.13;87.92
25945;SHT31;13742;49.306;8.636;2022-12-10T06:39:51;1.12;88.09
25945;SHT31;13742;49.306;8.636;2022-12-10T06:40:49;1.15;88.09